Berlin, NY (12022)

6:46 PM EDT on August 20, 2014 (GMT -0400)
Downtown | Change Station
CLOSE
Current Station
Personal Weather Station
Location: Berlin, NY
Elevation: 883 ft
Nearby Weather Stations

Elev 883 ft 42.69 °N, 73.37 °W | Updated 1 second ago

Mostly Cloudy
Mostly Cloudy
78.2 °F
Feels Like 80 °F
N
0.0
Wind Variable Wind from SSE
Gusts 0.0 mph

Today
High -- | Low -- °F
--% Chance of Precip.
Yesterday
High -- | Low -- °F
Precip. -- in
6:05 AM 7:47 PM
Waning Crescent, 18% visible
Pressure 29.98 in
Visibility 10.0 miles
Clouds Few 4700 ft
Scattered Clouds 6500 ft
Mostly Cloudy 9000 ft
Heat Index 80 °F
Dew Point 67 °F
Humidity 67%
Rainfall 0.00 in
Snow Depth Not available.
UV 2 out of 12
Pollen 9.10 out of 12
PM2.5 Moderate
Flu Activity Not available.
METAR KAQW 202052Z AUTO VRB04KT 10SM FEW047 SCT065 BKN090 25/18 A2998 RMK AO2 SLP150 T02500183 55002

More Conditions Fewer Conditions

Pressure 29.98 in
Visibility 10.0 miles
Clouds Few 4700 ft
Scattered Clouds 6500 ft
Mostly Cloudy 9000 ft
Heat Index 80 °F
Dew Point 67 °F
Humidity 67%
Rainfall 0.00 in
Snow Depth Not available.
UV 2 out of 12
Pollen 9.10 out of 12
PM2.5 Moderate
Flu Activity Not available.
METAR KAQW 202052Z AUTO VRB04KT 10SM FEW047 SCT065 BKN090 25/18 A2998 RMK AO2 SLP150 T02500183 55002

More Conditions Fewer Conditions

10-Day Weather Forecast

Almanac

Astronomy

Aug. 20, 2014 Rise Set
Actual Time 6:05 AM EDT 7:47 PM EDT
Civil Twilight 5:35 AM EDT 8:17 PM EDT
Nautical Twilight 4:58 AM EDT 8:53 PM EDT
Astronomical Twilight 4:19 AM EDT 9:32 PM EDT
Moon 1:40 AM EDT 4:32 PM EDT
Length of Visible Light 14h 42m
Length of Day
13h 42m
Tomorrow will be 2m 39s shorter.
Waning Crescent, 18% of the Moon is Illuminated
Today
Waning Crescent
Aug 25
New
Sep 2
First Quarter
Sep 8
Full
Sep 15
Last Quarter

Today's Extremes

State Highs State Lows

Community

WunderPhotos

Upload Photos

1,745,791 photos uploaded!

Nearby

Air Quality

  Air Quality AQ Index Pollutant
Yesterday Good
OZONE
Yesterday Good
PM2.5
Current Moderate
PM2.5
Wednesday Good
OZONE
Wednesday Good
PM2.5
Thursday Good
PM2.5
Thursday Good
OZONE

Snow Depth

Station Depth Elevation
No new snow has been reported.

Earthquake Activity

City Distance Mag. Time & Date
Deep River Center, Connecticut 103 miles 2.7 3:09 AM EDT
2014-08-14
Minimum magnitude displayed is 2.5.

Coastal Water Temperatures

Place Temperature
No Stations Reporting

Nearby Weather Stations